KBFI

Boeing Field / King County International Airport

Seattle, Washington, USA
METAR KBFI 222153Z AUTO VRB06KT 10SM CLR 14/03 A3036 RMK AO2 SLP279 T01390033 $
Observed Flight Rules
Apr-22 @ 21:53 UTC (11 minutes ago) Visual Flight Rules
Wind Visibility Clouds
Variable at 6 knots 10 miles
  • Clear skies
Temperatures Readings
Current 14°C / 57°F
Dewpoint 3°C / 37°F
Humidity 48%
Altimeter 30.36" Hg
Pressure 1027.9 hPa
Elevation 4
METAR KBFI 222153Z AUTO VRB06KT 10SM CLR 14/03 A3036 RMK AO2 SLP279 T01390033 $
Observed Flight Rules
Apr-22 @ 21:53 UTC
(11 minutes ago)
VFR
Wind Visibility
Variable at 6 knots 10 miles
Clouds
  • Clear skies
Temperature Dewpoint
14°C / 57°F 3°C / 37°F
Humidity Altimeter Pressure
48% 30.36" Hg 1027.9 hPa